createdAt,value
2023-04-27T00:01:17.313Z,91718.06
2023-04-27T00:03:50.513Z,91717.47
2023-04-27T00:06:23.121Z,91712.75
2023-04-27T00:08:56.032Z,91719.31
2023-04-27T00:11:29.036Z,91715.81
2023-04-27T00:14:01.391Z,91715.97
2023-04-27T00:16:33.870Z,91715.31
2023-04-27T00:19:07.986Z,91721.97
2023-04-27T00:21:40.572Z,91714.28
2023-04-27T00:24:12.851Z,91714.94
2023-04-27T00:26:45.767Z,91716.69
2023-04-27T00:29:18.118Z,91713.66
2023-04-27T00:31:50.594Z,91715.66
2023-04-27T00:34:22.968Z,91713.13
2023-04-27T00:36:55.251Z,91713.50
2023-04-27T00:39:27.600Z,91705.78
2023-04-27T00:42:00.989Z,91700.75
2023-04-27T00:44:33.380Z,91711.97
2023-04-27T00:47:05.908Z,91709.88
2023-04-27T00:49:38.730Z,91715.47
2023-04-27T00:52:11.015Z,91716.41
2023-04-27T00:54:43.414Z,91721.53
2023-04-27T00:57:16.386Z,91714.81
2023-04-27T00:59:49.754Z,91723.41
2023-04-27T01:02:22.535Z,91707.91
2023-04-27T01:04:55.652Z,91725.00
2023-04-27T01:07:28.050Z,91717.22
2023-04-27T01:10:00.317Z,91711.72
2023-04-27T01:12:33.775Z,91716.41
2023-04-27T01:15:07.224Z,91722.19
2023-04-27T01:17:39.518Z,91722.47
2023-04-27T01:20:11.904Z,91725.66
2023-04-27T01:22:53.384Z,91704.16
2023-04-27T01:25:26.698Z,91730.69
2023-04-27T01:27:59.402Z,91731.75
2023-04-27T01:30:31.648Z,91734.41
2023-04-27T01:33:04.687Z,91727.09
2023-04-27T01:35:37.062Z,91735.47
2023-04-27T01:38:09.381Z,91735.22
2023-04-27T01:40:42.346Z,91739.91
2023-04-27T01:43:14.629Z,91738.34
2023-04-27T01:45:47.775Z,91737.09
2023-04-27T01:48:20.125Z,91745.69
2023-04-27T01:50:52.644Z,91734.50
2023-04-27T01:53:24.910Z,91738.44
2023-04-27T01:55:58.942Z,91737.28
2023-04-27T01:58:31.853Z,91739.59
2023-04-27T02:01:04.444Z,91731.00
2023-04-27T02:03:36.903Z,91737.22
2023-04-27T02:06:11.002Z,91733.56
2023-04-27T02:08:45.000Z,91742.34
2023-04-27T02:11:18.008Z,91734.00
2023-04-27T02:13:50.288Z,91724.69
2023-04-27T02:16:22.801Z,91735.81
2023-04-27T02:18:55.285Z,91728.53
2023-04-27T02:21:27.796Z,91728.75
2023-04-27T02:24:01.117Z,91738.31
2023-04-27T02:26:34.099Z,91741.19
2023-04-27T02:29:06.435Z,91740.41
2023-04-27T02:31:39.134Z,91736.28
2023-04-27T02:34:11.456Z,91728.84
2023-04-27T02:36:43.749Z,91737.94
2023-04-27T02:39:16.392Z,91746.41
2023-04-27T02:41:49.388Z,91745.63
2023-04-27T02:44:21.616Z,91743.38
2023-04-27T02:46:53.988Z,91744.09
2023-04-27T02:49:27.605Z,91744.06
2023-04-27T02:51:59.869Z,91745.88
2023-04-27T02:54:32.448Z,91742.22
2023-04-27T02:57:05.722Z,91749.94
2023-04-27T02:59:38.731Z,91751.25
2023-04-27T03:02:11.134Z,91751.53
2023-04-27T03:04:43.468Z,91757.44
2023-04-27T03:07:15.808Z,91748.63
2023-04-27T03:09:48.167Z,91752.03
2023-04-27T03:12:21.094Z,91758.47
2023-04-27T03:14:53.479Z,91767.03
2023-04-27T03:17:25.844Z,91764.47
2023-04-27T03:19:58.228Z,91761.97
2023-04-27T03:22:30.765Z,91772.28
2023-04-27T03:25:03.459Z,91752.25
2023-04-27T03:27:36.420Z,91778.22
2023-04-27T03:30:10.216Z,91781.13
2023-04-27T03:32:49.946Z,91789.03
2023-04-27T03:35:22.026Z,91775.78
2023-04-27T03:37:54.218Z,91781.50
2023-04-27T03:40:26.627Z,91777.47
2023-04-27T03:43:00.251Z,91786.75
2023-04-27T03:45:32.658Z,91790.44
2023-04-27T03:48:06.308Z,91788.59
2023-04-27T03:50:39.486Z,91791.13
2023-04-27T03:53:12.534Z,91792.13
2023-04-27T03:55:45.828Z,91793.34
2023-04-27T03:58:18.795Z,91792.25
2023-04-27T04:01:11.344Z,91792.19
2023-04-27T04:03:44.282Z,91798.81
2023-04-27T04:06:17.531Z,91806.59
2023-04-27T04:08:50.603Z,91812.25
2023-04-27T04:11:23.237Z,91813.75
2023-04-27T04:13:59.680Z,91814.56
2023-04-27T04:16:33.186Z,91816.81
2023-04-27T04:19:05.484Z,91821.97
2023-04-27T04:21:37.803Z,91818.41
2023-04-27T04:24:10.434Z,91823.63
2023-04-27T04:26:42.741Z,91823.41
2023-04-27T04:29:16.172Z,91821.88
2023-04-27T04:31:48.813Z,91825.47
2023-04-27T04:34:22.178Z,91834.78
2023-04-27T04:36:56.693Z,91839.69
2023-04-27T04:39:30.842Z,91835.88
2023-04-27T04:42:03.697Z,91843.00
2023-04-27T04:44:38.332Z,91837.84
2023-04-27T04:47:11.494Z,91846.91
2023-04-27T04:49:43.817Z,91853.13
2023-04-27T04:52:16.873Z,91851.06
2023-04-27T04:54:51.412Z,91855.19
2023-04-27T04:57:23.874Z,91862.41
2023-04-27T04:59:57.233Z,91864.41
2023-04-27T05:02:30.019Z,91865.91
2023-04-27T05:05:02.513Z,91865.31
2023-04-27T05:07:35.409Z,91860.50
2023-04-27T05:10:08.279Z,91870.28
2023-04-27T05:12:40.610Z,91871.28
2023-04-27T05:15:13.769Z,91874.06
2023-04-27T05:17:46.243Z,91880.00
2023-04-27T05:20:18.653Z,91878.34
2023-04-27T05:22:50.949Z,91886.63
2023-04-27T05:25:23.301Z,91880.06
2023-04-27T05:27:55.698Z,91877.44
2023-04-27T05:30:28.685Z,91889.78
2023-04-27T05:33:01.611Z,91880.50
2023-04-27T05:35:34.555Z,91890.44
2023-04-27T05:38:06.952Z,91886.19
2023-04-27T05:40:39.311Z,91896.97
2023-04-27T05:43:11.925Z,91885.22
2023-04-27T05:45:45.165Z,91892.38
2023-04-27T05:48:17.812Z,91889.72
2023-04-27T05:50:58.333Z,91894.06
2023-04-27T05:53:32.617Z,91889.84
2023-04-27T05:56:06.032Z,91891.13
2023-04-27T05:58:38.411Z,91892.50
2023-04-27T06:01:12.105Z,91904.78
2023-04-27T06:03:45.001Z,91899.03
2023-04-27T06:06:17.969Z,91898.16
2023-04-27T06:08:50.459Z,91898.06
2023-04-27T06:11:23.046Z,91897.66
2023-04-27T06:13:55.495Z,91900.16
2023-04-27T06:16:28.761Z,91895.94
2023-04-27T06:19:01.314Z,91896.88
2023-04-27T06:21:34.425Z,91894.22
2023-04-27T06:24:07.116Z,91886.09
2023-04-27T06:26:39.405Z,91893.78
2023-04-27T06:29:12.009Z,91902.03
2023-04-27T06:31:45.160Z,91897.44
2023-04-27T06:34:17.645Z,91883.00
2023-04-27T06:36:50.200Z,91893.41
2023-04-27T06:39:22.628Z,91888.81
2023-04-27T06:41:55.085Z,91896.66
2023-04-27T06:44:30.701Z,91879.19
2023-04-27T06:47:03.979Z,91870.91
2023-04-27T06:49:36.391Z,91889.25
2023-04-27T06:52:08.771Z,91887.91
2023-04-27T06:54:41.213Z,91886.22
2023-04-27T06:57:13.710Z,91882.59
2023-04-27T06:59:46.164Z,91879.16
2023-04-27T07:02:19.440Z,91881.13
2023-04-27T07:04:51.916Z,91894.88
2023-04-27T07:07:24.345Z,91885.47
2023-04-27T07:09:57.298Z,91880.50
2023-04-27T07:12:29.670Z,91878.19
2023-04-27T07:15:03.640Z,91881.56
2023-04-27T07:17:36.620Z,91883.72
2023-04-27T07:20:09.237Z,91880.56
2023-04-27T07:22:41.548Z,91880.28
2023-04-27T07:25:13.878Z,91876.50
2023-04-27T07:27:46.474Z,91877.91
2023-04-27T07:30:18.776Z,91880.22
2023-04-27T07:32:53.780Z,91881.63
2023-04-27T07:35:26.131Z,91881.97
2023-04-27T07:38:00.983Z,91877.28
2023-04-27T07:40:33.825Z,91877.69
2023-04-27T07:43:06.241Z,91881.66
2023-04-27T07:45:40.958Z,91877.53
2023-04-27T07:48:13.986Z,91880.41
2023-04-27T07:50:46.297Z,91879.00
2023-04-27T07:53:18.601Z,91881.97
2023-04-27T07:55:50.845Z,91886.81
2023-04-27T07:58:23.097Z,91883.16
2023-04-27T08:00:55.518Z,91891.28
2023-04-27T08:03:28.713Z,91879.25
2023-04-27T08:06:01.614Z,91883.44
2023-04-27T08:08:34.505Z,91887.75
2023-04-27T08:11:09.135Z,91891.03
2023-04-27T08:13:41.419Z,91889.78
2023-04-27T08:16:13.746Z,91886.28
2023-04-27T08:18:46.732Z,91882.94
2023-04-27T08:21:18.976Z,91886.19
2023-04-27T08:23:51.303Z,91891.59
2023-04-27T08:26:25.674Z,91889.53
2023-04-27T08:28:59.126Z,91886.84
2023-04-27T08:31:31.418Z,91879.16
2023-04-27T08:34:04.429Z,91897.34
2023-04-27T08:36:36.670Z,91893.97
2023-04-27T08:39:09.800Z,91892.13
2023-04-27T08:41:43.152Z,91898.91
2023-04-27T08:44:15.512Z,91892.72
2023-04-27T08:46:48.226Z,91881.81
2023-04-27T08:49:21.452Z,91890.28
2023-04-27T08:51:53.908Z,91891.53
2023-04-27T08:54:26.943Z,91897.13
2023-04-27T08:56:59.205Z,91901.28
2023-04-27T08:59:32.336Z,91896.94
2023-04-27T09:02:04.875Z,91895.03
2023-04-27T09:04:38.360Z,91898.63
2023-04-27T09:07:11.821Z,91888.00
2023-04-27T09:09:45.031Z,91887.03
2023-04-27T09:12:18.509Z,91894.63
2023-04-27T09:14:57.843Z,91901.03
2023-04-27T09:17:30.769Z,91885.41
2023-04-27T09:20:09.586Z,91893.63
2023-04-27T09:22:45.395Z,91890.31
2023-04-27T09:25:25.165Z,91897.41
2023-04-27T09:27:58.395Z,91886.75
2023-04-27T09:30:30.773Z,91879.34
2023-04-27T09:33:03.283Z,91874.88
2023-04-27T09:35:36.401Z,91876.50
2023-04-27T09:38:08.764Z,91879.50
2023-04-27T09:40:41.849Z,91869.34
2023-04-27T09:43:14.486Z,91865.84
2023-04-27T09:45:47.894Z,91860.16
2023-04-27T09:48:21.763Z,91856.25
2023-04-27T09:50:54.711Z,91852.00
2023-04-27T09:53:33.535Z,91861.06
2023-04-27T09:56:25.325Z,91855.53
2023-04-27T09:59:17.632Z,91852.41
2023-04-27T10:01:54.161Z,91848.47
2023-04-27T10:04:53.870Z,91851.69
2023-04-27T10:07:27.458Z,91856.50
2023-04-27T10:10:03.585Z,91856.03
2023-04-27T10:12:36.750Z,91848.16
2023-04-27T10:15:13.472Z,91844.34
2023-04-27T10:17:50.842Z,91860.63
2023-04-27T10:20:30.296Z,91857.88
2023-04-27T10:23:03.785Z,91854.50
2023-04-27T10:25:40.418Z,91845.72
2023-04-27T10:28:16.614Z,91847.22
2023-04-27T10:30:49.496Z,91848.66
2023-04-27T10:33:22.808Z,91845.88
2023-04-27T10:35:56.310Z,91837.91
2023-04-27T10:38:30.806Z,91843.56
2023-04-27T10:41:04.842Z,91847.56
2023-04-27T10:43:37.203Z,91845.06
2023-04-27T10:46:11.287Z,91854.00
2023-04-27T10:48:44.648Z,91846.50
2023-04-27T10:51:17.170Z,91840.03
2023-04-27T10:53:53.289Z,91841.41
2023-04-27T10:56:25.978Z,91845.25
2023-04-27T10:59:02.865Z,91844.97
2023-04-27T11:01:36.272Z,91840.50
2023-04-27T11:04:08.725Z,91843.34
2023-04-27T11:06:46.105Z,91836.34
2023-04-27T11:09:26.748Z,91831.34
2023-04-27T11:11:59.096Z,91833.66
2023-04-27T11:14:31.424Z,91820.97
2023-04-27T11:17:04.154Z,91843.69
2023-04-27T11:19:45.897Z,91842.88
2023-04-27T11:22:18.257Z,91835.00
2023-04-27T11:24:52.740Z,91839.63
2023-04-27T11:27:36.789Z,91833.53
2023-04-27T11:30:20.482Z,91840.03
2023-04-27T11:32:53.299Z,91844.19
2023-04-27T11:35:35.041Z,91850.47
2023-04-27T11:38:07.841Z,91847.78
2023-04-27T11:40:42.014Z,91839.06
2023-04-27T11:43:14.866Z,91847.94
2023-04-27T11:45:47.242Z,91845.00
2023-04-27T11:48:20.368Z,91844.22
2023-04-27T11:50:52.926Z,91855.56
2023-04-27T11:53:36.031Z,91859.81
2023-04-27T11:56:10.666Z,91855.19
2023-04-27T11:58:45.691Z,91851.97
2023-04-27T12:01:27.757Z,91859.09
2023-04-27T12:04:09.206Z,91857.16
2023-04-27T12:06:41.565Z,91856.34
2023-04-27T12:09:13.849Z,91864.91
2023-04-27T12:11:46.833Z,91851.19
2023-04-27T12:14:19.239Z,91862.16
2023-04-27T12:16:51.664Z,91866.16
2023-04-27T12:19:25.140Z,91872.94
2023-04-27T12:21:57.808Z,91864.03
2023-04-27T12:24:30.123Z,91872.78
2023-04-27T12:27:03.597Z,91869.06
2023-04-27T12:29:36.437Z,91872.19
2023-04-27T12:32:08.734Z,91875.56
2023-04-27T12:34:42.192Z,91862.97
2023-04-27T12:37:14.479Z,91865.88
2023-04-27T12:39:46.865Z,91854.16
2023-04-27T12:42:23.353Z,91859.88
2023-04-27T12:44:56.231Z,91875.91
2023-04-27T12:47:49.773Z,91867.53
2023-04-27T12:50:21.262Z,91868.09
2023-04-27T12:52:53.565Z,91864.72
2023-04-27T12:58:04.505Z,91866.06
2023-04-27T13:00:37.780Z,91866.66
2023-04-27T13:03:10.558Z,91862.22
2023-04-27T13:05:43.747Z,91867.13
2023-04-27T13:08:16.350Z,91870.78
2023-04-27T13:10:48.717Z,91875.09
2023-04-27T13:13:21.808Z,91864.34
2023-04-27T13:15:54.242Z,91861.38
2023-04-27T13:18:26.720Z,91868.72
2023-04-27T13:20:59.030Z,91851.97
2023-04-27T13:23:31.361Z,91855.56
2023-04-27T13:26:03.908Z,91858.03
2023-04-27T13:28:36.898Z,91854.34
2023-04-27T13:31:09.276Z,91858.69
2023-04-27T13:33:43.013Z,91855.63
2023-04-27T13:36:15.474Z,91865.06
2023-04-27T13:38:47.781Z,91859.63
2023-04-27T13:41:20.221Z,91867.22
2023-04-27T13:43:53.132Z,91855.50
2023-04-27T13:46:26.151Z,91861.28
2023-04-27T13:48:58.434Z,91854.84
2023-04-27T13:51:32.617Z,91863.78
2023-04-27T13:54:06.263Z,91865.03
2023-04-27T13:56:38.518Z,91864.16
2023-04-27T13:59:11.586Z,91861.53
2023-04-27T14:01:43.918Z,91869.97
2023-04-27T14:04:16.319Z,91862.22
2023-04-27T14:06:48.697Z,91867.03
2023-04-27T14:09:21.004Z,91871.53
2023-04-27T14:11:57.065Z,91869.81
2023-04-27T14:14:30.431Z,91877.28
2023-04-27T14:17:02.829Z,91881.22
2023-04-27T14:19:35.161Z,91879.88
2023-04-27T14:22:08.653Z,91878.59
2023-04-27T14:24:40.942Z,91879.81
2023-04-27T14:27:15.101Z,91897.88
2023-04-27T14:29:48.050Z,91887.22
2023-04-27T14:32:20.646Z,91894.44
2023-04-27T14:34:53.184Z,91900.31
2023-04-27T14:37:25.501Z,91907.06
2023-04-27T14:39:58.142Z,91904.91
2023-04-27T14:42:31.538Z,91908.25
2023-04-27T14:45:05.630Z,91905.66
2023-04-27T14:47:38.235Z,91903.38
2023-04-27T14:50:11.215Z,91903.84
2023-04-27T14:52:43.528Z,91913.22
2023-04-27T14:55:17.361Z,91912.13
2023-04-27T14:57:50.032Z,91918.47
2023-04-27T15:00:23.096Z,91912.16
2023-04-27T15:02:55.484Z,91915.38
2023-04-27T15:05:28.043Z,91908.25
2023-04-27T15:08:00.827Z,91916.97
2023-04-27T15:10:33.110Z,91919.72
2023-04-27T15:13:05.407Z,91923.91
2023-04-27T15:15:38.654Z,91926.25
2023-04-27T15:18:11.368Z,91933.06
2023-04-27T15:20:44.735Z,91927.44
2023-04-27T15:23:17.570Z,91935.44
2023-04-27T15:25:53.682Z,91925.16
2023-04-27T15:28:26.089Z,91927.94
2023-04-27T15:30:59.130Z,91930.41
2023-04-27T15:33:31.466Z,91941.41
2023-04-27T15:36:04.147Z,91939.41
2023-04-27T15:38:36.481Z,91942.94
2023-04-27T15:41:08.783Z,91948.72
2023-04-27T15:43:41.109Z,91943.38
2023-04-27T15:46:14.903Z,91955.19
2023-04-27T15:48:47.202Z,91948.59
2023-04-27T15:51:19.458Z,91949.84
2023-04-27T15:53:51.863Z,91953.00
2023-04-27T15:56:27.634Z,91959.97
2023-04-27T15:59:03.205Z,91953.59
2023-04-27T16:01:36.228Z,91967.88
2023-04-27T16:04:08.635Z,91965.09
2023-04-27T16:06:41.230Z,91962.81
2023-04-27T16:09:13.852Z,91953.22
2023-04-27T16:11:46.362Z,91967.78
2023-04-27T16:14:18.628Z,91972.88
2023-04-27T16:16:51.658Z,91973.38
2023-04-27T16:19:23.930Z,91984.31
2023-04-27T16:21:56.237Z,91978.19
2023-04-27T16:24:29.784Z,91986.94
2023-04-27T16:27:02.798Z,91982.97
2023-04-27T16:29:35.135Z,91984.00
2023-04-27T16:32:08.347Z,91993.38
2023-04-27T16:34:40.824Z,91994.25
2023-04-27T16:37:13.212Z,91991.59
2023-04-27T16:39:45.632Z,91999.69
2023-04-27T16:42:19.624Z,92003.63
2023-04-27T16:44:51.965Z,92004.22
2023-04-27T16:47:24.971Z,92008.72
2023-04-27T16:49:57.566Z,92011.22
2023-04-27T16:52:30.302Z,92020.00
2023-04-27T16:55:02.833Z,92019.31
2023-04-27T16:57:35.205Z,92023.81
2023-04-27T17:00:09.228Z,92022.34
2023-04-27T17:02:43.967Z,92028.22
2023-04-27T17:05:16.789Z,92030.34
2023-04-27T17:07:49.095Z,92025.97
2023-04-27T17:10:21.574Z,92032.38
2023-04-27T17:12:53.875Z,92032.97
2023-04-27T17:15:27.904Z,92036.56
2023-04-27T17:18:03.899Z,92038.88
2023-04-27T17:20:36.723Z,92039.53
2023-04-27T17:23:09.082Z,92037.72
2023-04-27T17:25:41.368Z,92035.13
2023-04-27T17:28:13.691Z,92046.50
2023-04-27T17:30:45.975Z,92045.44
2023-04-27T17:33:18.986Z,92051.13
2023-04-27T17:35:51.351Z,92049.50
2023-04-27T17:38:23.682Z,92052.09
2023-04-27T17:40:55.961Z,92059.03
2023-04-27T17:43:28.383Z,92054.91
2023-04-27T17:46:00.869Z,92058.56
2023-04-27T17:48:33.845Z,92057.50
2023-04-27T17:51:07.876Z,92067.53
2023-04-27T17:53:40.115Z,92071.59
2023-04-27T17:56:12.474Z,92077.44
2023-04-27T17:58:44.740Z,92085.53
2023-04-27T18:01:17.106Z,92084.94
2023-04-27T18:03:51.261Z,92090.03
2023-04-27T18:06:23.658Z,92097.84
2023-04-27T18:08:55.943Z,92102.13
2023-04-27T18:11:28.740Z,92095.75
2023-04-27T18:14:01.368Z,92103.56
2023-04-27T18:16:33.798Z,92107.72
2023-04-27T18:19:06.777Z,92105.31
2023-04-27T18:21:39.162Z,92111.03
2023-04-27T18:24:11.484Z,92113.03
2023-04-27T18:26:43.797Z,92115.75
2023-04-27T18:29:16.208Z,92124.25
2023-04-27T18:31:48.688Z,92126.47
2023-04-27T18:34:21.629Z,92123.28
2023-04-27T18:36:53.986Z,92120.78
2023-04-27T18:39:26.414Z,92123.25
2023-04-27T18:41:58.718Z,92135.88
2023-04-27T18:44:31.032Z,92141.53
2023-04-27T18:47:03.332Z,92138.59
2023-04-27T18:49:36.314Z,92141.94
2023-04-27T18:52:10.664Z,92144.81
2023-04-27T18:54:43.255Z,92147.81
2023-04-27T18:57:15.597Z,92155.84
2023-04-27T18:59:47.970Z,92155.19
2023-04-27T19:02:20.331Z,92161.81
2023-04-27T19:05:10.449Z,92164.53
2023-04-27T19:07:45.170Z,92165.66
2023-04-27T19:10:17.525Z,92170.56
2023-04-27T19:12:50.561Z,92179.38
2023-04-27T19:15:22.906Z,92176.72
2023-04-27T19:18:02.839Z,92175.34
2023-04-27T19:20:42.682Z,92173.97
2023-04-27T19:23:18.331Z,92180.34
2023-04-27T19:25:50.706Z,92178.69
2023-04-27T19:28:24.197Z,92179.16
2023-04-27T19:30:57.981Z,92177.16
2023-04-27T19:33:30.323Z,92188.63
2023-04-27T19:36:03.746Z,92190.41
2023-04-27T19:38:36.229Z,92187.19
2023-04-27T19:41:08.553Z,92191.06
2023-04-27T19:43:41.136Z,92189.47
2023-04-27T19:46:13.556Z,92192.38
2023-04-27T19:48:45.958Z,92189.13
2023-04-27T19:51:18.983Z,92194.47
2023-04-27T19:53:51.304Z,92196.16
2023-04-27T19:56:23.599Z,92203.38
2023-04-27T19:58:55.883Z,92195.75
2023-04-27T20:01:28.225Z,92199.06
2023-04-27T20:04:01.212Z,92205.22
2023-04-27T20:06:34.460Z,92202.09
2023-04-27T20:09:07.516Z,92200.22
2023-04-27T20:11:39.862Z,92192.50
2023-04-27T20:14:12.200Z,92199.34
2023-04-27T20:16:44.596Z,92194.41
2023-04-27T20:19:18.462Z,92200.88
2023-04-27T20:21:51.477Z,92196.00
2023-04-27T20:24:23.755Z,92197.81
2023-04-27T20:26:56.000Z,92196.59
2023-04-27T20:29:28.288Z,92192.19
2023-04-27T20:32:01.451Z,92193.88
2023-04-27T20:34:33.928Z,92200.66
2023-04-27T20:37:06.962Z,92206.69
2023-04-27T20:39:39.258Z,92205.16
2023-04-27T20:42:12.338Z,92206.44
2023-04-27T20:44:45.560Z,92212.09
2023-04-27T20:47:17.853Z,92213.34
2023-04-27T20:49:50.597Z,92213.38
2023-04-27T20:52:23.546Z,92214.69
2023-04-27T20:54:55.857Z,92221.81
2023-04-27T20:57:28.195Z,92204.19
2023-04-27T21:00:01.289Z,92208.53
2023-04-27T21:02:33.625Z,92211.09
2023-04-27T21:05:06.015Z,92214.81
2023-04-27T21:07:39.006Z,92209.13
2023-04-27T21:10:12.102Z,92214.63
2023-04-27T21:12:44.445Z,92197.50
2023-04-27T21:15:16.798Z,92208.91
2023-04-27T21:17:49.130Z,92205.50
2023-04-27T21:20:21.473Z,92198.00
2023-04-27T21:22:55.528Z,92207.31
2023-04-27T21:25:27.821Z,92201.38
2023-04-27T21:28:00.434Z,92202.88
2023-04-27T21:30:32.901Z,92210.94
2023-04-27T21:33:05.504Z,92201.91
2023-04-27T21:35:37.876Z,92203.72
2023-04-27T21:38:10.804Z,92210.94
2023-04-27T21:40:43.123Z,92209.34
2023-04-27T21:43:15.632Z,92211.66
2023-04-27T21:45:47.967Z,92210.34
2023-04-27T21:48:20.197Z,92208.06
2023-04-27T21:50:52.470Z,92216.59
2023-04-27T21:53:25.610Z,92211.41
2023-04-27T21:55:57.908Z,92208.84
2023-04-27T21:58:30.139Z,92212.22
2023-04-27T22:01:02.426Z,92214.28
2023-04-27T22:03:34.890Z,92211.97
2023-04-27T22:06:08.332Z,92207.09
2023-04-27T22:08:41.360Z,92212.81
2023-04-27T22:11:13.682Z,92215.13
2023-04-27T22:13:45.944Z,92213.34
2023-04-27T22:16:18.240Z,92219.28
2023-04-27T22:18:51.049Z,92221.13
2023-04-27T22:21:23.346Z,92225.25
2023-04-27T22:23:56.322Z,92221.88
2023-04-27T22:26:28.842Z,92220.88
2023-04-27T22:29:01.381Z,92216.72
2023-04-27T22:31:33.772Z,92216.78
2023-04-27T22:34:06.113Z,92224.03
2023-04-27T22:36:38.450Z,92214.19
2023-04-27T22:39:11.445Z,92218.56
2023-04-27T22:41:45.169Z,92223.00
2023-04-27T22:44:17.704Z,92222.47
2023-04-27T22:46:50.161Z,92220.66
2023-04-27T22:49:23.346Z,92210.84
2023-04-27T22:51:57.038Z,92210.56
2023-04-27T22:54:30.513Z,92217.28
2023-04-27T22:57:03.723Z,92204.09
2023-04-27T22:59:35.954Z,92197.91
2023-04-27T23:02:08.530Z,92201.78
2023-04-27T23:04:40.831Z,92197.63
2023-04-27T23:07:16.446Z,92194.50
2023-04-27T23:09:49.363Z,92190.09
2023-04-27T23:12:21.730Z,92190.63
2023-04-27T23:14:53.968Z,92184.94
2023-04-27T23:17:29.688Z,92189.81
2023-04-27T23:20:05.439Z,92193.44
2023-04-27T23:22:42.854Z,92197.28
2023-04-27T23:25:15.987Z,92193.66
2023-04-27T23:27:49.363Z,92196.50
2023-04-27T23:30:23.585Z,92186.38
2023-04-27T23:32:56.192Z,92190.97
2023-04-27T23:35:29.058Z,92187.88
2023-04-27T23:38:01.460Z,92189.69
2023-04-27T23:40:34.348Z,92190.69
2023-04-27T23:43:06.806Z,92192.25
2023-04-27T23:45:39.073Z,92189.41
2023-04-27T23:48:11.421Z,92189.91
2023-04-27T23:50:43.795Z,92191.47
2023-04-27T23:53:16.621Z,92185.72
2023-04-27T23:55:49.549Z,92187.53
2023-04-27T23:58:23.332Z,92188.56
